Terminal Aerodrome Forecast
Issued by NWS

Home | Current Version | Previous Version | Text Only | Print | Product List | Glossary On
Versions: 1 2 3 4 5 6 7 8 9 10 11 12 13 14 15 16 17 18
000
FTUS46 KSEW 270200 AAA
TAFOLM
TAF AMD
KOLM 270222Z 2702/2724 00000KT P6SM -RA SCT006 OVC012
      TEMPO 2702/2705 4SM -RA BR OVC006
     FM270600 VRB03KT 5SM -RA BR BKN012 OVC025
     FM271600 VRB03KT P6SM VCSH SCT020 BKN040
     FM272200 34010KT P6SM SCT025 BKN050=

USA.gov is the U.S. government's official web portal to all federal, state and local government web resources and services.